Time;durP1;ratioP1;P1;durP2;ratioP2;P2;SDS_P1;SDS_P2;PMS_P1;PMS_P2;Temp;Humidity;BMP_temperature;BMP_pressure;BME280_temperature;BME280_humidity;BME280_pressure;Samples;Min_cycle;Max_cycle;Signal;HPM_P1;HPM_P2
2023/02/04 00:01:16;;;;;;;2.37;1.90;;;;;;;;;;5012199;28;20367;-80
2023/02/04 00:03:42;;;;;;;2.47;1.90;;;;;;;;;;5007409;28;20387;-79
2023/02/04 00:06:08;;;;;;;3.63;2.20;;;;;;;;;;5009747;28;20765;-79
2023/02/04 00:08:36;;;;;;;2.15;1.85;;;;;;;;;;5008003;28;20382;-79
2023/02/04 00:11:02;;;;;;;3.83;2.00;;;;;;;;;;4993397;28;20444;-79
2023/02/04 00:13:29;;;;;;;3.17;2.00;;;;;;;;;;5006666;28;20414;-80
2023/02/04 00:15:55;;;;;;;2.33;1.93;;;;;;;;;;5009611;28;20375;-79
2023/02/04 00:18:21;;;;;;;3.15;2.10;;;;;;;;;;5009539;28;20415;-80
2023/02/04 00:20:47;;;;;;;3.85;1.90;;;;;;;;;;5005911;28;20394;-80
2023/02/04 00:23:13;;;;;;;4.05;2.00;;;;;;;;;;4990573;28;20373;-80
2023/02/04 00:25:40;;;;;;;3.43;2.10;;;;;;;;;;4991226;28;20486;-80
2023/02/04 00:28:06;;;;;;;3.72;2.10;;;;;;;;;;4999764;28;20763;-80
2023/02/04 00:30:32;;;;;;;3.08;1.90;;;;;;;;;;4989267;28;20399;-80
2023/02/04 00:32:58;;;;;;;2.60;2.20;;;;;;;;;;5005329;28;20378;-81
2023/02/04 00:35:24;;;;;;;5.25;2.20;;;;;;;;;;5009888;28;20696;-80
2023/02/04 00:37:50;;;;;;;3.17;2.05;;;;;;;;;;5008957;28;20414;-81
2023/02/04 00:40:16;;;;;;;2.17;1.98;;;;;;;;;;5009795;28;20387;-80
2023/02/04 00:42:42;;;;;;;2.35;2.00;;;;;;;;;;5008170;28;20894;-81
2023/02/04 00:45:09;;;;;;;3.35;1.73;;;;;;;;;;5009081;28;20389;-81
2023/02/04 00:47:35;;;;;;;3.13;1.90;;;;;;;;;;5007460;28;20474;-80
2023/02/04 00:50:02;;;;;;;2.55;1.80;;;;;;;;;;5008259;28;20483;-80
2023/02/04 00:52:28;;;;;;;2.80;1.90;;;;;;;;;;5009696;28;20471;-80
2023/02/04 00:54:54;;;;;;;4.22;1.80;;;;;;;;;;5009702;28;20730;-80
2023/02/04 00:57:20;;;;;;;2.17;1.67;;;;;;;;;;5009145;28;20378;-80
2023/02/04 01:02:22;;;;;;;3.17;1.83;;;;;;;;;;5024149;23;20429;-80
2023/02/04 01:04:48;;;;;;;4.03;2.42;;;;;;;;;;4989964;28;20439;-80
2023/02/04 01:07:14;;;;;;;5.15;1.85;;;;;;;;;;4987971;28;20854;-78
2023/02/04 01:09:43;;;;;;;5.05;2.47;;;;;;;;;;4990698;28;20388;-80
2023/02/04 01:12:09;;;;;;;3.25;1.95;;;;;;;;;;4989859;28;20398;-81
2023/02/04 01:14:35;;;;;;;3.15;2.00;;;;;;;;;;5008705;28;20379;-80
2023/02/04 01:17:01;;;;;;;2.80;1.75;;;;;;;;;;5004843;28;20396;-79
2023/02/04 01:19:27;;;;;;;3.00;1.73;;;;;;;;;;4994673;28;20452;-80
2023/02/04 01:21:53;;;;;;;2.42;1.73;;;;;;;;;;5003766;28;20397;-80
2023/02/04 01:24:19;;;;;;;2.08;1.50;;;;;;;;;;5000934;28;20383;-79
2023/02/04 01:26:45;;;;;;;2.10;1.57;;;;;;;;;;4999527;28;20853;-80
2023/02/04 01:29:11;;;;;;;2.00;1.75;;;;;;;;;;4987135;28;20385;-79
2023/02/04 01:31:37;;;;;;;3.22;1.85;;;;;;;;;;4987852;28;20490;-79
2023/02/04 01:34:03;;;;;;;3.40;1.80;;;;;;;;;;4989204;28;20447;-79
2023/02/04 01:36:29;;;;;;;2.92;1.73;;;;;;;;;;4988645;28;20388;-79
2023/02/04 01:38:57;;;;;;;3.58;1.92;;;;;;;;;;4987650;28;20412;-81
2023/02/04 01:41:23;;;;;;;3.17;1.80;;;;;;;;;;4988035;28;20517;-79
2023/02/04 01:43:49;;;;;;;3.55;1.70;;;;;;;;;;5003275;28;20780;-80
2023/02/04 01:46:15;;;;;;;4.00;1.80;;;;;;;;;;4988080;28;20559;-80
2023/02/04 01:48:42;;;;;;;2.80;1.50;;;;;;;;;;4988748;28;21209;-80
2023/02/04 01:51:10;;;;;;;1.83;1.60;;;;;;;;;;4987906;28;20989;-80
2023/02/04 01:53:36;;;;;;;2.58;1.52;;;;;;;;;;4988426;28;21242;-80
2023/02/04 01:56:11;;;;;;;3.13;1.50;;;;;;;;;;4988360;28;20401;-80
2023/02/04 01:58:37;;;;;;;3.13;1.80;;;;;;;;;;4987302;28;20528;-80
2023/02/04 02:01:05;;;;;;;3.72;1.50;;;;;;;;;;4987376;28;20535;-80
2023/02/04 02:03:31;;;;;;;2.83;1.50;;;;;;;;;;4988574;28;20477;-80
2023/02/04 02:05:57;;;;;;;2.80;1.40;;;;;;;;;;4988473;28;20909;-80
2023/02/04 02:08:23;;;;;;;1.70;1.20;;;;;;;;;;4987586;28;20387;-80
2023/02/04 02:10:49;;;;;;;2.10;1.42;;;;;;;;;;4988926;28;20398;-80
2023/02/04 02:13:17;;;;;;;2.28;1.50;;;;;;;;;;4986724;28;20876;-80
2023/02/04 02:15:44;;;;;;;2.20;1.40;;;;;;;;;;4988655;28;20467;-80
2023/02/04 02:18:10;;;;;;;2.97;1.20;;;;;;;;;;5019519;28;20405;-79
2023/02/04 02:20:36;;;;;;;2.15;1.42;;;;;;;;;;4989171;28;20538;-80
2023/02/04 02:23:21;;;;;;;3.10;1.40;;;;;;;;;;4988655;28;20831;-80
2023/02/04 02:25:47;;;;;;;2.60;1.40;;;;;;;;;;4968977;28;20476;-80
2023/02/04 02:28:15;;;;;;;2.90;1.52;;;;;;;;;;4986665;28;20393;-81
2023/02/04 02:30:44;;;;;;;2.20;1.30;;;;;;;;;;4989757;28;20412;-81
2023/02/04 02:33:10;;;;;;;1.90;1.13;;;;;;;;;;4992815;28;20778;-80
2023/02/04 02:35:36;;;;;;;3.33;1.48;;;;;;;;;;5023759;28;21377;-80
2023/02/04 02:38:02;;;;;;;1.83;1.33;;;;;;;;;;5022604;28;20752;-80
2023/02/04 02:40:28;;;;;;;3.05;1.42;;;;;;;;;;4991313;28;20403;-80
2023/02/04 02:42:54;;;;;;;1.77;1.38;;;;;;;;;;5022419;28;20743;-80
2023/02/04 02:45:24;;;;;;;2.63;1.58;;;;;;;;;;4992138;28;20388;-80
2023/02/04 02:47:51;;;;;;;2.83;1.52;;;;;;;;;;4991036;28;20372;-80
2023/02/04 02:50:19;;;;;;;2.30;1.30;;;;;;;;;;4992272;28;20403;-80
2023/02/04 02:52:46;;;;;;;3.30;1.70;;;;;;;;;;4989857;28;20485;-79
2023/02/04 02:55:16;;;;;;;3.67;1.58;;;;;;;;;;4992198;28;20669;-80
2023/02/04 02:57:42;;;;;;;3.25;1.63;;;;;;;;;;4990666;28;20431;-80
2023/02/04 03:00:13;;;;;;;3.95;1.65;;;;;;;;;;4992273;28;20388;-80
2023/02/04 03:02:39;;;;;;;3.00;1.63;;;;;;;;;;4991410;28;20435;-79
2023/02/04 03:05:06;;;;;;;2.72;1.33;;;;;;;;;;4990134;28;20507;-80
2023/02/04 03:07:32;;;;;;;2.65;1.70;;;;;;;;;;4991505;28;20868;-80
2023/02/04 03:09:58;;;;;;;4.55;1.45;;;;;;;;;;4990693;28;20385;-80
2023/02/04 03:12:24;;;;;;;3.67;2.10;;;;;;;;;;4992068;28;20488;-80
2023/02/04 03:14:50;;;;;;;3.20;1.60;;;;;;;;;;4989958;28;20412;-80
2023/02/04 03:17:16;;;;;;;2.25;1.77;;;;;;;;;;4990217;28;20405;-80
2023/02/04 03:19:42;;;;;;;3.10;1.70;;;;;;;;;;4990664;28;20431;-80
2023/02/04 03:22:08;;;;;;;2.55;1.70;;;;;;;;;;4991667;28;20839;-80
2023/02/04 03:24:35;;;;;;;2.97;1.60;;;;;;;;;;4989561;28;20407;-80
2023/02/04 03:27:01;;;;;;;2.95;1.60;;;;;;;;;;4991072;28;20420;-79
2023/02/04 03:29:27;;;;;;;2.65;1.48;;;;;;;;;;4990230;28;20377;-81
2023/02/04 03:31:58;;;;;;;3.70;2.00;;;;;;;;;;4991307;28;20456;-80
2023/02/04 03:34:25;;;;;;;3.70;1.70;;;;;;;;;;4992343;28;20416;-79
2023/02/04 03:36:51;;;;;;;4.25;1.60;;;;;;;;;;4991019;28;20381;-79
2023/02/04 03:39:17;;;;;;;3.70;1.73;;;;;;;;;;4991495;28;20412;-79
2023/02/04 03:41:43;;;;;;;3.95;1.83;;;;;;;;;;4988373;28;20436;-79
2023/02/04 03:44:09;;;;;;;2.42;1.73;;;;;;;;;;4990784;28;20495;-79
2023/02/04 03:46:35;;;;;;;3.50;1.92;;;;;;;;;;4990117;28;20480;-81
2023/02/04 03:49:01;;;;;;;4.67;1.97;;;;;;;;;;4990664;28;20399;-81
2023/02/04 03:51:27;;;;;;;3.50;1.73;;;;;;;;;;4988704;28;20412;-80
2023/02/04 03:53:53;;;;;;;3.28;1.80;;;;;;;;;;4990083;28;20388;-79
2023/02/04 03:56:19;;;;;;;3.45;1.77;;;;;;;;;;4990592;28;20415;-79
2023/02/04 03:58:45;;;;;;;4.03;1.65;;;;;;;;;;4989055;28;20454;-80
2023/02/04 04:01:11;;;;;;;4.53;1.77;;;;;;;;;;4990793;28;20449;-80
2023/02/04 04:03:37;;;;;;;4.40;1.98;;;;;;;;;;4991228;28;20464;-80
2023/02/04 04:06:05;;;;;;;3.17;1.77;;;;;;;;;;4990785;28;20879;-79
2023/02/04 04:08:31;;;;;;;3.45;1.80;;;;;;;;;;4989620;28;20377;-81
2023/02/04 04:10:57;;;;;;;4.43;1.67;;;;;;;;;;4988737;28;20558;-80
2023/02/04 04:13:23;;;;;;;3.90;1.63;;;;;;;;;;4990834;28;20377;-79
2023/02/04 04:15:49;;;;;;;4.32;2.03;;;;;;;;;;4989899;28;20391;-80
2023/02/04 04:18:15;;;;;;;3.65;1.95;;;;;;;;;;4989777;28;20405;-80
2023/02/04 04:20:41;;;;;;;3.13;1.95;;;;;;;;;;4988327;28;20511;-80
2023/02/04 04:23:07;;;;;;;2.97;1.83;;;;;;;;;;5022000;28;20772;-80
2023/02/04 04:25:33;;;;;;;4.00;1.95;;;;;;;;;;4989813;28;20471;-79
2023/02/04 04:27:59;;;;;;;4.13;1.80;;;;;;;;;;5020413;28;20397;-81
2023/02/04 04:30:25;;;;;;;5.05;2.05;;;;;;;;;;4987586;28;21101;-80
2023/02/04 04:32:51;;;;;;;4.27;1.90;;;;;;;;;;4990268;28;20476;-80
2023/02/04 04:35:17;;;;;;;5.78;2.08;;;;;;;;;;4989886;28;20927;-80
2023/02/04 04:37:43;;;;;;;3.90;1.70;;;;;;;;;;4989232;28;20428;-80
2023/02/04 04:40:11;;;;;;;3.63;1.95;;;;;;;;;;4988294;28;20436;-80
2023/02/04 04:42:37;;;;;;;4.90;2.03;;;;;;;;;;4990188;28;20381;-80
2023/02/04 04:45:05;;;;;;;6.00;2.00;;;;;;;;;;4989734;28;20452;-80
2023/02/04 04:47:31;;;;;;;4.00;1.98;;;;;;;;;;4988866;28;20387;-80
2023/02/04 04:49:57;;;;;;;4.78;2.00;;;;;;;;;;4988524;28;20546;-81
2023/02/04 04:52:23;;;;;;;4.57;2.20;;;;;;;;;;4990443;28;20396;-79
2023/02/04 04:54:49;;;;;;;7.70;2.35;;;;;;;;;;4990296;28;20391;-80
2023/02/04 04:57:15;;;;;;;5.57;2.05;;;;;;;;;;4987560;28;20381;-81
2023/02/04 04:59:41;;;;;;;4.40;2.10;;;;;;;;;;4987495;28;20440;-80
2023/02/04 05:02:07;;;;;;;6.45;2.17;;;;;;;;;;4987426;28;20801;-80
2023/02/04 05:04:33;;;;;;;6.05;2.30;;;;;;;;;;4988805;28;20934;-80
2023/02/04 05:06:59;;;;;;;5.27;2.10;;;;;;;;;;4987893;28;20499;-80
2023/02/04 05:09:25;;;;;;;5.60;2.35;;;;;;;;;;4989261;28;20397;-80
2023/02/04 05:11:51;;;;;;;4.75;2.08;;;;;;;;;;4988893;28;20392;-80
2023/02/04 05:14:17;;;;;;;6.10;2.20;;;;;;;;;;4989692;28;20381;-80
2023/02/04 05:16:43;;;;;;;8.73;2.25;;;;;;;;;;4989052;28;20368;-80
2023/02/04 05:19:09;;;;;;;6.10;2.28;;;;;;;;;;4988765;28;20903;-79
2023/02/04 05:21:35;;;;;;;7.05;2.80;;;;;;;;;;4987769;28;20397;-80
2023/02/04 05:24:01;;;;;;;4.68;2.45;;;;;;;;;;4990057;28;20388;-80
2023/02/04 05:26:27;;;;;;;4.78;2.17;;;;;;;;;;4989381;28;20405;-80
2023/02/04 05:28:53;;;;;;;4.50;2.07;;;;;;;;;;4987882;28;20540;-80
2023/02/04 05:31:19;;;;;;;7.70;2.30;;;;;;;;;;4989727;28;20388;-80
2023/02/04 05:33:45;;;;;;;5.85;2.10;;;;;;;;;;4989664;28;20377;-79
2023/02/04 05:36:11;;;;;;;6.57;2.15;;;;;;;;;;4987722;28;20409;-79
2023/02/04 05:38:37;;;;;;;6.90;2.58;;;;;;;;;;4987983;28;20887;-80
2023/02/04 05:41:03;;;;;;;7.60;2.80;;;;;;;;;;4989692;28;20450;-80
2023/02/04 05:43:29;;;;;;;5.05;2.45;;;;;;;;;;4988140;28;20383;-81
2023/02/04 05:45:56;;;;;;;7.05;2.60;;;;;;;;;;4986566;28;20396;-80
2023/02/04 05:48:23;;;;;;;8.85;2.90;;;;;;;;;;5027333;28;20492;-80
2023/02/04 05:50:49;;;;;;;5.65;2.60;;;;;;;;;;5009083;28;20383;-81
2023/02/04 05:53:15;;;;;;;6.72;2.38;;;;;;;;;;4986025;28;20807;-81
2023/02/04 05:55:41;;;;;;;8.05;2.92;;;;;;;;;;4987426;28;20396;-80
2023/02/04 05:58:07;;;;;;;5.43;2.50;;;;;;;;;;4986524;28;20428;-80
2023/02/04 06:00:33;;;;;;;6.15;2.10;;;;;;;;;;4986982;28;20407;-79
2023/02/04 06:02:59;;;;;;;8.32;2.83;;;;;;;;;;4986130;28;20409;-81
2023/02/04 06:05:25;;;;;;;8.60;2.55;;;;;;;;;;4990380;28;20843;-81
2023/02/04 06:07:51;;;;;;;7.05;2.33;;;;;;;;;;4992381;28;20489;-81
2023/02/04 06:10:17;;;;;;;7.32;2.47;;;;;;;;;;4993120;28;20381;-79
2023/02/04 06:12:43;;;;;;;9.83;2.67;;;;;;;;;;4990166;28;20404;-80
2023/02/04 06:15:10;;;;;;;8.07;2.50;;;;;;;;;;4997402;28;20837;-80
2023/02/04 06:17:36;;;;;;;6.13;2.70;;;;;;;;;;4996505;28;20419;-80
2023/02/04 06:20:02;;;;;;;5.72;2.33;;;;;;;;;;4992164;28;20727;-80
2023/02/04 06:22:28;;;;;;;9.43;2.90;;;;;;;;;;4992685;28;20793;-81
2023/02/04 06:24:54;;;;;;;6.00;2.88;;;;;;;;;;4990979;28;20911;-80
2023/02/04 06:27:22;;;;;;;7.50;2.55;;;;;;;;;;4991925;28;20373;-79
2023/02/04 06:29:51;;;;;;;8.95;2.63;;;;;;;;;;4991399;28;20395;-80
2023/02/04 06:32:18;;;;;;;8.77;3.07;;;;;;;;;;4989710;28;20494;-81
2023/02/04 06:34:44;;;;;;;4.47;2.47;;;;;;;;;;4995181;28;20391;-80
2023/02/04 06:37:10;;;;;;;7.07;2.85;;;;;;;;;;4990954;28;20495;-80
2023/02/04 06:39:38;;;;;;;5.97;2.88;;;;;;;;;;4991952;28;20487;-77
2023/02/04 06:42:04;;;;;;;7.32;3.03;;;;;;;;;;4996680;28;20406;-79
2023/02/04 06:44:30;;;;;;;5.32;2.60;;;;;;;;;;4998211;28;20400;-80
2023/02/04 06:46:56;;;;;;;8.30;2.90;;;;;;;;;;4991473;28;20439;-80
2023/02/04 06:49:24;;;;;;;5.80;2.42;;;;;;;;;;4993684;28;20392;-80
2023/02/04 06:51:50;;;;;;;7.72;2.90;;;;;;;;;;4994093;28;20459;-79
2023/02/04 06:54:16;;;;;;;6.65;2.88;;;;;;;;;;4991622;28;20850;-80
2023/02/04 06:56:45;;;;;;;6.43;2.88;;;;;;;;;;4992182;28;20844;-80
2023/02/04 06:59:11;;;;;;;7.07;3.10;;;;;;;;;;4989805;28;20413;-80
2023/02/04 07:01:37;;;;;;;7.03;3.80;;;;;;;;;;4992200;28;21192;-80
2023/02/04 07:04:03;;;;;;;6.95;3.30;;;;;;;;;;4990843;28;20401;-81
2023/02/04 07:06:29;;;;;;;7.13;3.38;;;;;;;;;;4997597;28;20381;-80
2023/02/04 07:08:55;;;;;;;7.35;3.92;;;;;;;;;;5003713;28;20731;-82
2023/02/04 07:11:21;;;;;;;14.80;9.27;;;;;;;;;;4993608;28;20404;-80
2023/02/04 07:13:47;;;;;;;19.08;11.32;;;;;;;;;;4990927;28;20411;-80
2023/02/04 07:16:13;;;;;;;11.88;7.00;;;;;;;;;;4990047;28;20733;-79
2023/02/04 07:18:39;;;;;;;10.82;6.25;;;;;;;;;;4993820;28;20413;-80
2023/02/04 07:21:05;;;;;;;8.75;4.88;;;;;;;;;;4990204;28;20377;-80
2023/02/04 07:23:31;;;;;;;9.25;3.50;;;;;;;;;;4989361;28;20495;-80
2023/02/04 07:25:58;;;;;;;7.37;3.23;;;;;;;;;;4990461;28;20381;-81
2023/02/04 07:28:24;;;;;;;9.02;3.90;;;;;;;;;;5000023;28;20401;-79
2023/02/04 07:30:50;;;;;;;8.45;4.20;;;;;;;;;;4990325;28;20405;-79
2023/02/04 07:33:16;;;;;;;6.93;3.30;;;;;;;;;;4991084;28;20405;-79
2023/02/04 07:35:43;;;;;;;7.60;3.05;;;;;;;;;;4992638;28;20407;-80
2023/02/04 07:38:09;;;;;;;5.63;2.47;;;;;;;;;;4989476;28;20452;-81
2023/02/04 07:40:35;;;;;;;6.05;2.45;;;;;;;;;;4988589;28;20405;-79
2023/02/04 07:43:01;;;;;;;6.60;2.77;;;;;;;;;;4990795;28;20405;-79
2023/02/04 07:45:27;;;;;;;5.95;2.30;;;;;;;;;;4993942;28;20912;-81
2023/02/04 07:47:53;;;;;;;7.75;2.60;;;;;;;;;;5021668;28;20906;-79
2023/02/04 07:50:19;;;;;;;5.80;2.70;;;;;;;;;;4989813;28;21098;-79
2023/02/04 07:52:45;;;;;;;8.20;2.78;;;;;;;;;;4991110;28;20389;-80
2023/02/04 07:55:11;;;;;;;5.63;2.65;;;;;;;;;;4990672;28;20395;-80
2023/02/04 07:57:37;;;;;;;4.80;2.58;;;;;;;;;;4996906;28;20779;-79
2023/02/04 08:00:04;;;;;;;7.85;2.70;;;;;;;;;;5010526;28;20466;-80
2023/02/04 08:02:30;;;;;;;6.30;2.72;;;;;;;;;;5010339;28;20777;-80
2023/02/04 08:04:56;;;;;;;5.40;2.45;;;;;;;;;;4993715;28;20373;-79
2023/02/04 08:07:22;;;;;;;5.97;2.77;;;;;;;;;;4988485;28;20400;-79
2023/02/04 08:09:48;;;;;;;5.75;2.28;;;;;;;;;;4989401;28;20760;-79
2023/02/04 08:12:14;;;;;;;4.28;2.40;;;;;;;;;;4989498;28;20384;-80
2023/02/04 08:14:40;;;;;;;5.15;2.20;;;;;;;;;;4993276;28;21215;-79
2023/02/04 08:17:06;;;;;;;4.78;2.30;;;;;;;;;;5000708;28;21250;-79
2023/02/04 08:19:32;;;;;;;6.40;2.20;;;;;;;;;;4987973;28;20448;-80
2023/02/04 08:21:58;;;;;;;4.25;2.13;;;;;;;;;;4989294;28;20480;-80
2023/02/04 08:24:24;;;;;;;4.35;2.00;;;;;;;;;;4987974;28;20787;-80
2023/02/04 08:26:50;;;;;;;5.10;1.98;;;;;;;;;;4989085;28;20404;-78
2023/02/04 08:29:16;;;;;;;5.07;2.47;;;;;;;;;;4989042;28;20469;-78
2023/02/04 08:31:42;;;;;;;7.60;2.40;;;;;;;;;;4989693;28;20385;-80
2023/02/04 08:34:08;;;;;;;5.55;1.88;;;;;;;;;;4989596;28;20408;-79
2023/02/04 08:36:34;;;;;;;4.38;2.20;;;;;;;;;;4992004;28;20482;-79
2023/02/04 08:39:00;;;;;;;6.43;2.38;;;;;;;;;;4989926;28;20883;-79
2023/02/04 08:41:26;;;;;;;4.30;2.10;;;;;;;;;;4988732;28;20424;-79
2023/02/04 08:43:52;;;;;;;4.72;2.00;;;;;;;;;;4989069;28;20512;-79
2023/02/04 08:46:18;;;;;;;6.75;2.33;;;;;;;;;;4998502;28;20395;-79
2023/02/04 08:48:44;;;;;;;4.25;2.10;;;;;;;;;;4994672;28;20397;-80
2023/02/04 08:51:10;;;;;;;4.63;1.95;;;;;;;;;;4988768;28;20899;-78
2023/02/04 08:53:36;;;;;;;4.93;2.08;;;;;;;;;;4988863;28;20396;-79
2023/02/04 08:56:02;;;;;;;6.22;2.17;;;;;;;;;;4987756;28;20404;-79
2023/02/04 08:58:29;;;;;;;5.00;2.03;;;;;;;;;;4988226;28;20401;-80
2023/02/04 09:00:55;;;;;;;5.18;1.80;;;;;;;;;;4987251;28;20524;-79
2023/02/04 09:03:21;;;;;;;3.05;1.48;;;;;;;;;;4989267;28;20413;-79
2023/02/04 09:05:47;;;;;;;4.68;1.80;;;;;;;;;;4988975;28;20381;-80
2023/02/04 09:08:14;;;;;;;3.92;1.60;;;;;;;;;;4988534;28;20417;-80
2023/02/04 09:10:40;;;;;;;4.50;1.67;;;;;;;;;;5018086;28;20424;-80
2023/02/04 09:13:10;;;;;;;4.25;1.60;;;;;;;;;;4991647;28;20488;-80
2023/02/04 09:15:39;;;;;;;2.95;1.40;;;;;;;;;;4988474;28;20855;-80
2023/02/04 09:18:13;;;;;;;4.07;1.75;;;;;;;;;;4988360;28;20437;-80
2023/02/04 09:20:40;;;;;;;4.85;1.58;;;;;;;;;;4989835;28;20499;-81
2023/02/04 09:23:08;;;;;;;2.70;1.33;;;;;;;;;;4988291;28;20393;-80
2023/02/04 09:25:34;;;;;;;3.38;1.45;;;;;;;;;;4981626;28;20506;-81
2023/02/04 09:28:00;;;;;;;4.30;1.30;;;;;;;;;;4987604;28;20432;-81
2023/02/04 09:30:27;;;;;;;3.22;1.40;;;;;;;;;;4989620;28;20451;-79
2023/02/04 09:32:53;;;;;;;2.55;1.20;;;;;;;;;;4987206;28;20411;-79
2023/02/04 09:35:19;;;;;;;3.92;1.30;;;;;;;;;;4992779;28;20889;-81
2023/02/04 09:37:45;;;;;;;3.35;1.30;;;;;;;;;;4987419;28;20427;-82
2023/02/04 09:40:16;;;;;;;4.00;1.48;;;;;;;;;;4990410;28;20426;-82
2023/02/04 09:42:43;;;;;;;3.30;1.20;;;;;;;;;;4991898;28;20558;-82
2023/02/04 09:45:14;;;;;;;2.33;1.30;;;;;;;;;;4994762;28;20942;-81
2023/02/04 09:47:40;;;;;;;4.78;1.65;;;;;;;;;;4992268;28;20521;-80
2023/02/04 09:50:09;;;;;;;4.13;1.60;;;;;;;;;;4993493;28;20377;-82
2023/02/04 09:52:35;;;;;;;3.22;1.20;;;;;;;;;;4993083;28;20385;-81
2023/02/04 09:55:01;;;;;;;4.68;1.30;;;;;;;;;;4993118;28;20874;-80
2023/02/04 09:57:29;;;;;;;4.38;1.40;;;;;;;;;;5006173;28;20383;-78
2023/02/04 09:59:55;;;;;;;2.67;1.30;;;;;;;;;;4994397;28;20405;-79
2023/02/04 10:02:24;;;;;;;3.28;1.50;;;;;;;;;;4992446;28;20416;-78
2023/02/04 10:04:51;;;;;;;2.53;1.35;;;;;;;;;;4992598;28;20381;-79
2023/02/04 10:07:20;;;;;;;2.97;1.40;;;;;;;;;;5022934;28;20384;-79
2023/02/04 10:09:47;;;;;;;2.55;1.30;;;;;;;;;;4992503;28;20389;-78
2023/02/04 10:12:14;;;;;;;2.10;1.20;;;;;;;;;;5023018;28;20404;-79
2023/02/04 10:14:40;;;;;;;3.00;1.10;;;;;;;;;;4994698;28;20397;-80
2023/02/04 10:17:07;;;;;;;2.03;1.23;;;;;;;;;;4992786;28;20380;-79
2023/02/04 10:19:33;;;;;;;2.90;1.40;;;;;;;;;;4991292;28;20411;-80
2023/02/04 10:22:00;;;;;;;2.03;1.30;;;;;;;;;;4995230;28;20471;-79
2023/02/04 10:24:29;;;;;;;2.10;1.30;;;;;;;;;;4991395;28;20431;-79
2023/02/04 10:27:06;;;;;;;4.55;1.42;;;;;;;;;;4990620;28;20740;-79
2023/02/04 10:29:32;;;;;;;2.95;1.40;;;;;;;;;;4990978;28;20487;-80
2023/02/04 10:31:58;;;;;;;3.20;1.30;;;;;;;;;;4991961;28;20475;-79
2023/02/04 10:34:32;;;;;;;3.28;1.35;;;;;;;;;;4990273;28;20751;-80
2023/02/04 10:36:57;;;;;;;2.55;1.27;;;;;;;;;;4994482;28;20395;-80
2023/02/04 10:39:27;;;;;;;3.55;1.20;;;;;;;;;;4989611;28;20767;-79
2023/02/04 10:41:55;;;;;;;2.75;1.20;;;;;;;;;;5022938;28;20819;-80
2023/02/04 10:44:47;;;;;;;2.80;1.20;;;;;;;;;;4990604;28;20601;-80
2023/02/04 10:47:21;;;;;;;3.35;1.20;;;;;;;;;;4991993;28;20416;-81
2023/02/04 10:49:54;;;;;;;3.15;1.38;;;;;;;;;;4994563;28;20490;-79
2023/02/04 10:52:22;;;;;;;2.50;1.20;;;;;;;;;;4991942;28;21164;-80
2023/02/04 10:54:48;;;;;;;2.08;1.27;;;;;;;;;;4991573;28;20400;-78
2023/02/04 10:57:20;;;;;;;1.77;1.23;;;;;;;;;;4988120;28;20431;-78
2023/02/04 10:59:47;;;;;;;3.92;1.58;;;;;;;;;;5006237;28;20827;-78
2023/02/04 11:02:30;;;;;;;4.28;1.45;;;;;;;;;;4997040;28;20396;-78
2023/02/04 11:04:56;;;;;;;2.97;1.20;;;;;;;;;;4994088;28;20395;-80
2023/02/04 11:07:23;;;;;;;1.83;1.10;;;;;;;;;;4989812;28;20401;-81
2023/02/04 11:09:50;;;;;;;3.13;1.20;;;;;;;;;;4999090;28;20786;-82
2023/02/04 11:12:34;;;;;;;2.30;1.10;;;;;;;;;;4990379;28;20503;-80
2023/02/04 11:15:00;;;;;;;2.17;1.27;;;;;;;;;;4987961;28;20393;-80
2023/02/04 11:17:30;;;;;;;4.05;1.23;;;;;;;;;;4970980;28;20464;-80
2023/02/04 11:19:57;;;;;;;2.00;1.20;;;;;;;;;;4972493;28;20742;-80
2023/02/04 11:22:24;;;;;;;3.70;1.20;;;;;;;;;;4971278;28;20374;-79
2023/02/04 11:24:51;;;;;;;3.10;1.10;;;;;;;;;;4987075;28;20394;-80
2023/02/04 11:27:19;;;;;;;2.92;1.30;;;;;;;;;;4971964;28;20382;-80
2023/02/04 11:29:46;;;;;;;4.22;1.67;;;;;;;;;;4986506;28;20410;-81
2023/02/04 11:32:31;;;;;;;1.50;0.90;;;;;;;;;;4987158;28;21057;-81
2023/02/04 11:35:13;;;;;;;2.63;1.10;;;;;;;;;;4972503;28;20457;-79
2023/02/04 11:37:40;;;;;;;1.92;1.25;;;;;;;;;;4971610;28;20383;-79
2023/02/04 11:40:15;;;;;;;1.90;1.08;;;;;;;;;;4971087;28;20473;-81
2023/02/04 11:42:42;;;;;;;2.83;1.20;;;;;;;;;;4980951;28;20388;-79
2023/02/04 11:45:13;;;;;;;2.00;1.10;;;;;;;;;;4991277;28;20476;-79
2023/02/04 11:47:39;;;;;;;1.80;1.20;;;;;;;;;;4990626;28;20381;-80
2023/02/04 11:50:14;;;;;;;2.83;1.17;;;;;;;;;;4990242;28;20428;-80
2023/02/04 11:52:40;;;;;;;3.08;1.00;;;;;;;;;;4989627;28;20392;-80
2023/02/04 11:55:07;;;;;;;2.47;1.10;;;;;;;;;;4991057;28;20377;-81
2023/02/04 11:57:38;;;;;;;3.47;1.10;;;;;;;;;;4990511;28;20389;-79
2023/02/04 12:00:04;;;;;;;1.20;1.02;;;;;;;;;;4988605;28;20902;-79
2023/02/04 12:02:40;;;;;;;4.40;1.30;;;;;;;;;;4986874;28;20757;-78
2023/02/04 12:05:11;;;;;;;2.55;1.17;;;;;;;;;;5021660;28;20397;-80
2023/02/04 12:07:37;;;;;;;2.95;1.13;;;;;;;;;;5019869;28;20377;-79
2023/02/04 12:10:19;;;;;;;2.63;1.00;;;;;;;;;;4988962;28;20402;-79
2023/02/04 12:12:56;;;;;;;3.28;1.15;;;;;;;;;;5000039;28;20788;-80
2023/02/04 12:15:34;;;;;;;2.63;1.00;;;;;;;;;;5010681;28;20400;-80
2023/02/04 12:18:07;;;;;;;2.83;0.90;;;;;;;;;;4999446;28;20408;-81
2023/02/04 12:20:34;;;;;;;2.50;1.10;;;;;;;;;;4990343;28;20401;-79
2023/02/04 12:23:00;;;;;;;2.47;1.10;;;;;;;;;;4979170;28;20369;-78
2023/02/04 12:25:26;;;;;;;2.22;1.00;;;;;;;;;;4993545;28;20423;-80
2023/02/04 12:27:54;;;;;;;1.80;1.15;;;;;;;;;;4982976;28;22939;-79
2023/02/04 12:30:21;;;;;;;2.63;0.90;;;;;;;;;;4984932;28;20826;-79
2023/02/04 12:32:47;;;;;;;2.17;0.90;;;;;;;;;;4988286;28;20439;-78
2023/02/04 12:35:13;;;;;;;2.20;1.02;;;;;;;;;;4989017;28;20441;-79
2023/02/04 12:37:39;;;;;;;3.60;0.90;;;;;;;;;;4987294;28;20437;-79
2023/02/04 12:40:06;;;;;;;3.10;1.00;;;;;;;;;;4988938;28;20918;-80
2023/02/04 12:42:32;;;;;;;2.47;1.30;;;;;;;;;;4990148;28;20462;-80
2023/02/04 12:44:58;;;;;;;1.98;1.10;;;;;;;;;;4988525;28;20408;-79
2023/02/04 12:47:24;;;;;;;2.47;1.00;;;;;;;;;;4989185;28;20756;-80
2023/02/04 12:49:50;;;;;;;2.20;1.13;;;;;;;;;;4990132;28;20381;-82
2023/02/04 12:52:16;;;;;;;3.55;1.30;;;;;;;;;;4988877;28;20405;-79
2023/02/04 12:54:42;;;;;;;2.30;1.00;;;;;;;;;;4993989;28;20403;-79
2023/02/04 12:57:10;;;;;;;3.28;1.00;;;;;;;;;;5020224;28;20432;-81
2023/02/04 12:59:36;;;;;;;2.50;1.08;;;;;;;;;;4989832;28;20423;-81
2023/02/04 13:02:02;;;;;;;4.85;1.15;;;;;;;;;;4990890;28;20416;-81
2023/02/04 13:04:28;;;;;;;3.15;1.30;;;;;;;;;;5010455;28;20399;-80
2023/02/04 13:06:54;;;;;;;2.28;1.33;;;;;;;;;;5001978;28;20906;-81
2023/02/04 13:09:20;;;;;;;3.78;1.20;;;;;;;;;;5020312;28;20405;-82
2023/02/04 13:11:46;;;;;;;1.73;0.97;;;;;;;;;;4992818;28;20881;-80
2023/02/04 13:14:12;;;;;;;1.85;1.02;;;;;;;;;;4989212;28;20436;-82
2023/02/04 13:16:38;;;;;;;3.10;1.20;;;;;;;;;;4990675;28;20396;-81
2023/02/04 13:19:04;;;;;;;2.08;0.98;;;;;;;;;;4989783;28;20424;-79
2023/02/04 13:21:31;;;;;;;1.13;0.80;;;;;;;;;;4989531;28;20482;-81
2023/02/04 13:23:58;;;;;;;2.53;1.00;;;;;;;;;;5004765;28;20404;-80
2023/02/04 13:26:24;;;;;;;1.53;1.07;;;;;;;;;;4989342;28;20404;-81
2023/02/04 13:28:50;;;;;;;2.10;0.90;;;;;;;;;;5020919;28;20401;-79
2023/02/04 13:31:16;;;;;;;1.95;0.90;;;;;;;;;;4992554;28;20404;-80
2023/02/04 13:33:42;;;;;;;3.08;1.10;;;;;;;;;;4990001;28;20458;-81
2023/02/04 13:36:08;;;;;;;3.25;0.90;;;;;;;;;;4989825;28;20396;-81
2023/02/04 13:38:35;;;;;;;2.90;1.00;;;;;;;;;;4988438;28;20409;-81
2023/02/04 13:41:01;;;;;;;2.55;1.20;;;;;;;;;;4986993;28;20412;-81
2023/02/04 13:43:27;;;;;;;2.42;1.17;;;;;;;;;;4987135;28;22177;-81
2023/02/04 13:45:53;;;;;;;3.03;0.90;;;;;;;;;;4988229;28;20472;-80
2023/02/04 13:48:19;;;;;;;3.55;1.10;;;;;;;;;;4987955;28;20377;-80
2023/02/04 13:50:45;;;;;;;1.20;0.93;;;;;;;;;;4988427;28;20407;-79
2023/02/04 13:53:11;;;;;;;2.30;1.10;;;;;;;;;;4986220;28;20408;-80
2023/02/04 13:55:37;;;;;;;2.40;1.60;;;;;;;;;;4987579;28;20392;-79
2023/02/04 13:58:04;;;;;;;2.35;1.50;;;;;;;;;;4987890;28;20388;-79
2023/02/04 14:00:30;;;;;;;2.60;1.40;;;;;;;;;;4988271;28;20464;-80
2023/02/04 14:02:56;;;;;;;3.58;1.67;;;;;;;;;;4986904;28;20484;-80
2023/02/04 14:05:22;;;;;;;1.92;1.20;;;;;;;;;;4987068;28;20384;-79
2023/02/04 14:07:48;;;;;;;1.85;1.20;;;;;;;;;;4986021;28;20381;-81
2023/02/04 14:10:15;;;;;;;3.13;1.23;;;;;;;;;;4987043;28;20428;-79
2023/02/04 14:12:41;;;;;;;3.60;1.40;;;;;;;;;;4985839;28;20781;-82
2023/02/04 14:15:08;;;;;;;1.55;1.25;;;;;;;;;;4986435;28;21194;-80
2023/02/04 14:17:34;;;;;;;3.88;1.55;;;;;;;;;;5019889;28;20385;-83
2023/02/04 14:20:00;;;;;;;3.40;1.40;;;;;;;;;;4985740;28;20504;-80
2023/02/04 14:22:26;;;;;;;3.25;1.25;;;;;;;;;;4988676;28;20445;-83
2023/02/04 14:24:54;;;;;;;1.85;1.08;;;;;;;;;;4989311;28;20389;-85
2023/02/04 14:27:21;;;;;;;1.60;0.90;;;;;;;;;;4993007;28;20463;-82
2023/02/04 14:29:47;;;;;;;1.67;1.00;;;;;;;;;;4995941;28;20391;-84
2023/02/04 14:32:13;;;;;;;1.05;0.90;;;;;;;;;;4993951;28;20401;-82
2023/02/04 14:34:39;;;;;;;2.00;1.30;;;;;;;;;;4995046;28;20716;-83
2023/02/04 14:37:05;;;;;;;1.87;1.23;;;;;;;;;;4991385;28;20470;-83
2023/02/04 14:39:31;;;;;;;2.03;0.90;;;;;;;;;;4992621;28;20397;-83
2023/02/04 14:41:57;;;;;;;2.72;1.70;;;;;;;;;;4990519;28;20393;-84
2023/02/04 14:44:23;;;;;;;5.88;3.05;;;;;;;;;;4995140;28;20384;-82